sensor_id;sensor_type;location;lat;lon;timestamp;temperature;humidity
19552;DHT22;9921;47.186;9.778;2022-08-04T00:02:18;22.30;99.90
19552;DHT22;9921;47.186;9.778;2022-08-04T00:04:53;22.40;99.90
19552;DHT22;9921;47.186;9.778;2022-08-04T00:07:26;22.50;99.90
19552;DHT22;9921;47.186;9.778;2022-08-04T00:09:59;22.60;99.90
19552;DHT22;9921;47.186;9.778;2022-08-04T00:12:30;22.40;99.90
19552;DHT22;9921;47.186;9.778;2022-08-04T00:14:59;22.40;99.90
19552;DHT22;9921;47.186;9.778;2022-08-04T00:17:30;22.40;99.90
19552;DHT22;9921;47.186;9.778;2022-08-04T00:19:59;22.40;99.90
19552;DHT22;9921;47.186;9.778;2022-08-04T00:22:27;22.20;99.90
19552;DHT22;9921;47.186;9.778;2022-08-04T00:24:55;22.20;99.90
19552;DHT22;9921;47.186;9.778;2022-08-04T00:27:22;22.30;99.90
19552;DHT22;9921;47.186;9.778;2022-08-04T00:29:51;22.30;99.90
19552;DHT22;9921;47.186;9.778;2022-08-04T00:32:18;22.40;99.90
19552;DHT22;9921;47.186;9.778;2022-08-04T00:34:45;22.50;99.90
19552;DHT22;9921;47.186;9.778;2022-08-04T00:37:13;22.50;99.90
19552;DHT22;9921;47.186;9.778;2022-08-04T00:39:41;22.40;99.90
19552;DHT22;9921;47.186;9.778;2022-08-04T00:42:33;22.30;99.90
19552;DHT22;9921;47.186;9.778;2022-08-04T00:45:16;22.30;99.90
19552;DHT22;9921;47.186;9.778;2022-08-04T00:47:57;22.30;99.90
19552;DHT22;9921;47.186;9.778;2022-08-04T00:50:34;22.20;99.90
19552;DHT22;9921;47.186;9.778;2022-08-04T00:53:07;22.20;99.90
19552;DHT22;9921;47.186;9.778;2022-08-04T00:56:07;22.10;99.90
19552;DHT22;9921;47.186;9.778;2022-08-04T00:58:49;22.20;99.90
19552;DHT22;9921;47.186;9.778;2022-08-04T01:01:50;22.10;99.90
19552;DHT22;9921;47.186;9.778;2022-08-04T01:04:32;22.00;99.90
19552;DHT22;9921;47.186;9.778;2022-08-04T01:07:14;21.90;99.90
19552;DHT22;9921;47.186;9.778;2022-08-04T01:09:53;21.90;99.90
19552;DHT22;9921;47.186;9.778;2022-08-04T01:12:46;22.00;99.90
19552;DHT22;9921;47.186;9.778;2022-08-04T01:15:25;22.00;99.90
19552;DHT22;9921;47.186;9.778;2022-08-04T01:18:05;21.70;99.90
19552;DHT22;9921;47.186;9.778;2022-08-04T01:20:40;21.50;99.90
19552;DHT22;9921;47.186;9.778;2022-08-04T01:23:49;21.60;99.90
19552;DHT22;9921;47.186;9.778;2022-08-04T01:26:38;21.70;99.90
19552;DHT22;9921;47.186;9.778;2022-08-04T01:29:11;21.70;99.90
19552;DHT22;9921;47.186;9.778;2022-08-04T01:34:42;22.00;99.90
19552;DHT22;9921;47.186;9.778;2022-08-04T01:37:16;22.00;99.90
19552;DHT22;9921;47.186;9.778;2022-08-04T01:39:50;22.10;99.90
19552;DHT22;9921;47.186;9.778;2022-08-04T01:42:25;22.00;99.90
19552;DHT22;9921;47.186;9.778;2022-08-04T01:44:54;21.90;99.90
19552;DHT22;9921;47.186;9.778;2022-08-04T01:47:28;21.60;99.90
19552;DHT22;9921;47.186;9.778;2022-08-04T01:50:03;21.40;99.90
19552;DHT22;9921;47.186;9.778;2022-08-04T01:52:31;21.30;99.90
19552;DHT22;9921;47.186;9.778;2022-08-04T01:55:00;21.30;99.90
19552;DHT22;9921;47.186;9.778;2022-08-04T01:57:32;21.20;99.90
19552;DHT22;9921;47.186;9.778;2022-08-04T02:00:01;21.30;99.90
19552;DHT22;9921;47.186;9.778;2022-08-04T02:02:28;21.30;99.90
19552;DHT22;9921;47.186;9.778;2022-08-04T02:04:55;21.20;99.90
19552;DHT22;9921;47.186;9.778;2022-08-04T02:07:31;20.90;99.90
19552;DHT22;9921;47.186;9.778;2022-08-04T02:10:04;20.80;99.90
19552;DHT22;9921;47.186;9.778;2022-08-04T02:12:49;21.00;99.90
19552;DHT22;9921;47.186;9.778;2022-08-04T02:15:26;21.20;99.90
19552;DHT22;9921;47.186;9.778;2022-08-04T02:17:59;21.30;99.90
19552;DHT22;9921;47.186;9.778;2022-08-04T02:20:31;21.50;99.90
19552;DHT22;9921;47.186;9.778;2022-08-04T02:23:02;21.50;99.90
19552;DHT22;9921;47.186;9.778;2022-08-04T02:25:36;21.60;99.90
19552;DHT22;9921;47.186;9.778;2022-08-04T02:28:15;21.70;99.90
19552;DHT22;9921;47.186;9.778;2022-08-04T02:30:57;21.70;99.90
19552;DHT22;9921;47.186;9.778;2022-08-04T02:33:34;21.70;99.90
19552;DHT22;9921;47.186;9.778;2022-08-04T02:36:03;21.70;99.90
19552;DHT22;9921;47.186;9.778;2022-08-04T02:38:46;21.80;99.90
19552;DHT22;9921;47.186;9.778;2022-08-04T02:41:19;21.70;99.90
19552;DHT22;9921;47.186;9.778;2022-08-04T02:43:48;21.70;99.90
19552;DHT22;9921;47.186;9.778;2022-08-04T02:46:17;21.60;99.90
19552;DHT22;9921;47.186;9.778;2022-08-04T02:48:46;21.40;99.90
19552;DHT22;9921;47.186;9.778;2022-08-04T02:51:15;21.20;99.90
19552;DHT22;9921;47.186;9.778;2022-08-04T02:53:45;21.10;99.90
19552;DHT22;9921;47.186;9.778;2022-08-04T02:56:14;21.10;99.90
19552;DHT22;9921;47.186;9.778;2022-08-04T02:58:45;21.10;99.90
19552;DHT22;9921;47.186;9.778;2022-08-04T03:01:16;21.20;99.90
19552;DHT22;9921;47.186;9.778;2022-08-04T03:03:47;21.30;99.90
19552;DHT22;9921;47.186;9.778;2022-08-04T03:09:34;21.20;99.90
19552;DHT22;9921;47.186;9.778;2022-08-04T03:12:37;21.30;99.90
19552;DHT22;9921;47.186;9.778;2022-08-04T03:21:56;21.40;99.90
19552;DHT22;9921;47.186;9.778;2022-08-04T03:30:40;21.00;99.90
19552;DHT22;9921;47.186;9.778;2022-08-04T03:33:38;21.00;99.90
19552;DHT22;9921;47.186;9.778;2022-08-04T03:36:44;21.10;99.90
19552;DHT22;9921;47.186;9.778;2022-08-04T03:42:50;21.10;99.90
19552;DHT22;9921;47.186;9.778;2022-08-04T03:48:47;21.20;99.90
19552;DHT22;9921;47.186;9.778;2022-08-04T03:51:29;21.20;99.90
19552;DHT22;9921;47.186;9.778;2022-08-04T03:54:49;21.20;99.90
19552;DHT22;9921;47.186;9.778;2022-08-04T03:57:44;21.20;99.90
19552;DHT22;9921;47.186;9.778;2022-08-04T04:00:13;21.30;99.90
19552;DHT22;9921;47.186;9.778;2022-08-04T04:05:56;20.90;99.90
19552;DHT22;9921;47.186;9.778;2022-08-04T04:08:54;20.80;99.90
19552;DHT22;9921;47.186;9.778;2022-08-04T04:11:50;20.80;99.90
19552;DHT22;9921;47.186;9.778;2022-08-04T04:14:42;20.90;99.90
19552;DHT22;9921;47.186;9.778;2022-08-04T04:17:29;21.00;99.90
19552;DHT22;9921;47.186;9.778;2022-08-04T04:20:16;21.00;99.90
19552;DHT22;9921;47.186;9.778;2022-08-04T04:23:04;21.10;99.90
19552;DHT22;9921;47.186;9.778;2022-08-04T04:25:38;21.20;99.90
19552;DHT22;9921;47.186;9.778;2022-08-04T04:31:20;21.00;99.90
19552;DHT22;9921;47.186;9.778;2022-08-04T04:33:57;21.00;99.90
19552;DHT22;9921;47.186;9.778;2022-08-04T04:36:33;21.00;99.90
19552;DHT22;9921;47.186;9.778;2022-08-04T04:39:13;21.00;99.90
19552;DHT22;9921;47.186;9.778;2022-08-04T04:41:56;20.90;99.90
19552;DHT22;9921;47.186;9.778;2022-08-04T04:45:02;20.80;99.90
19552;DHT22;9921;47.186;9.778;2022-08-04T04:47:41;20.80;99.90
19552;DHT22;9921;47.186;9.778;2022-08-04T04:50:19;20.80;99.90
19552;DHT22;9921;47.186;9.778;2022-08-04T04:52:52;20.90;99.90
19552;DHT22;9921;47.186;9.778;2022-08-04T04:55:26;20.90;99.90
19552;DHT22;9921;47.186;9.778;2022-08-04T04:57:57;20.90;99.90
19552;DHT22;9921;47.186;9.778;2022-08-04T05:00:30;21.00;99.90
19552;DHT22;9921;47.186;9.778;2022-08-04T05:06:17;21.00;99.90
19552;DHT22;9921;47.186;9.778;2022-08-04T05:09:04;21.00;99.90
19552;DHT22;9921;47.186;9.778;2022-08-04T05:14:39;21.00;99.90
19552;DHT22;9921;47.186;9.778;2022-08-04T05:17:14;21.10;99.90
19552;DHT22;9921;47.186;9.778;2022-08-04T05:19:52;21.00;99.90
19552;DHT22;9921;47.186;9.778;2022-08-04T05:22:24;21.00;99.90
19552;DHT22;9921;47.186;9.778;2022-08-04T05:25:05;21.00;99.90
19552;DHT22;9921;47.186;9.778;2022-08-04T05:27:37;21.00;99.90
19552;DHT22;9921;47.186;9.778;2022-08-04T05:30:07;21.00;99.90
19552;DHT22;9921;47.186;9.778;2022-08-04T05:32:40;20.90;99.90
19552;DHT22;9921;47.186;9.778;2022-08-04T05:35:14;20.90;99.90
19552;DHT22;9921;47.186;9.778;2022-08-04T05:37:43;21.00;99.90
19552;DHT22;9921;47.186;9.778;2022-08-04T05:40:14;21.00;99.90
19552;DHT22;9921;47.186;9.778;2022-08-04T05:42:43;21.00;99.90
19552;DHT22;9921;47.186;9.778;2022-08-04T05:45:12;21.10;99.90
19552;DHT22;9921;47.186;9.778;2022-08-04T05:47:42;21.10;99.90
19552;DHT22;9921;47.186;9.778;2022-08-04T05:50:09;21.10;99.90
19552;DHT22;9921;47.186;9.778;2022-08-04T05:52:36;21.10;99.90
19552;DHT22;9921;47.186;9.778;2022-08-04T05:55:05;21.10;99.90
19552;DHT22;9921;47.186;9.778;2022-08-04T05:57:33;20.80;99.90
19552;DHT22;9921;47.186;9.778;2022-08-04T06:00:03;20.90;99.90
19552;DHT22;9921;47.186;9.778;2022-08-04T06:02:33;20.80;99.90
19552;DHT22;9921;47.186;9.778;2022-08-04T06:05:01;20.70;99.90
19552;DHT22;9921;47.186;9.778;2022-08-04T06:07:30;20.90;99.90
19552;DHT22;9921;47.186;9.778;2022-08-04T06:09:57;21.10;99.90
19552;DHT22;9921;47.186;9.778;2022-08-04T06:12:35;21.30;99.90
19552;DHT22;9921;47.186;9.778;2022-08-04T06:15:04;21.50;99.90
19552;DHT22;9921;47.186;9.778;2022-08-04T06:17:37;21.70;99.90
19552;DHT22;9921;47.186;9.778;2022-08-04T06:20:07;21.90;99.90
19552;DHT22;9921;47.186;9.778;2022-08-04T06:22:39;22.00;99.90
19552;DHT22;9921;47.186;9.778;2022-08-04T06:25:08;22.10;99.90
19552;DHT22;9921;47.186;9.778;2022-08-04T06:27:37;22.30;99.90
19552;DHT22;9921;47.186;9.778;2022-08-04T06:30:05;22.40;99.90
19552;DHT22;9921;47.186;9.778;2022-08-04T06:32:38;22.50;99.90
19552;DHT22;9921;47.186;9.778;2022-08-04T06:35:14;22.70;99.90
19552;DHT22;9921;47.186;9.778;2022-08-04T06:37:41;22.80;99.90
19552;DHT22;9921;47.186;9.778;2022-08-04T06:40:10;22.90;99.90
19552;DHT22;9921;47.186;9.778;2022-08-04T06:42:38;23.00;99.90
19552;DHT22;9921;47.186;9.778;2022-08-04T06:45:07;23.00;99.90
19552;DHT22;9921;47.186;9.778;2022-08-04T06:47:39;23.20;99.90
19552;DHT22;9921;47.186;9.778;2022-08-04T06:50:08;23.30;99.90
19552;DHT22;9921;47.186;9.778;2022-08-04T06:52:36;23.40;99.90
19552;DHT22;9921;47.186;9.778;2022-08-04T06:55:04;23.50;99.90
19552;DHT22;9921;47.186;9.778;2022-08-04T06:57:33;23.70;99.90
19552;DHT22;9921;47.186;9.778;2022-08-04T07:00:03;23.80;99.90
19552;DHT22;9921;47.186;9.778;2022-08-04T07:02:38;23.90;99.90
19552;DHT22;9921;47.186;9.778;2022-08-04T07:05:07;23.90;99.90
19552;DHT22;9921;47.186;9.778;2022-08-04T07:07:36;24.00;99.90
19552;DHT22;9921;47.186;9.778;2022-08-04T07:10:05;24.10;99.90
19552;DHT22;9921;47.186;9.778;2022-08-04T07:12:33;24.20;99.90
19552;DHT22;9921;47.186;9.778;2022-08-04T07:15:02;24.30;99.90
19552;DHT22;9921;47.186;9.778;2022-08-04T07:17:30;24.40;99.90
19552;DHT22;9921;47.186;9.778;2022-08-04T07:19:57;24.50;99.90
19552;DHT22;9921;47.186;9.778;2022-08-04T07:22:26;24.50;99.90
19552;DHT22;9921;47.186;9.778;2022-08-04T07:24:54;24.50;99.90
19552;DHT22;9921;47.186;9.778;2022-08-04T07:27:22;24.60;99.90
19552;DHT22;9921;47.186;9.778;2022-08-04T07:29:50;24.60;99.90
19552;DHT22;9921;47.186;9.778;2022-08-04T07:32:18;24.60;99.90
19552;DHT22;9921;47.186;9.778;2022-08-04T07:34:46;24.70;99.90
19552;DHT22;9921;47.186;9.778;2022-08-04T07:37:14;24.70;99.90
19552;DHT22;9921;47.186;9.778;2022-08-04T07:39:43;24.80;99.90
19552;DHT22;9921;47.186;9.778;2022-08-04T07:42:10;24.80;99.90
19552;DHT22;9921;47.186;9.778;2022-08-04T07:44:38;24.90;99.90
19552;DHT22;9921;47.186;9.778;2022-08-04T07:47:06;25.00;99.90
19552;DHT22;9921;47.186;9.778;2022-08-04T07:49:34;25.10;99.90
19552;DHT22;9921;47.186;9.778;2022-08-04T07:52:01;25.20;99.90
19552;DHT22;9921;47.186;9.778;2022-08-04T07:54:29;25.30;99.90
19552;DHT22;9921;47.186;9.778;2022-08-04T08:03:42;25.70;99.90
19552;DHT22;9921;47.186;9.778;2022-08-04T08:06:09;25.80;99.90
19552;DHT22;9921;47.186;9.778;2022-08-04T08:08:37;25.90;99.90
19552;DHT22;9921;47.186;9.778;2022-08-04T08:14:26;26.10;99.90
19552;DHT22;9921;47.186;9.778;2022-08-04T08:16:54;26.20;99.90
19552;DHT22;9921;47.186;9.778;2022-08-04T08:19:23;26.30;99.90
19552;DHT22;9921;47.186;9.778;2022-08-04T08:28:34;26.70;99.90
19552;DHT22;9921;47.186;9.778;2022-08-04T08:31:01;26.90;99.90
19552;DHT22;9921;47.186;9.778;2022-08-04T08:33:27;26.90;99.90
19552;DHT22;9921;47.186;9.778;2022-08-04T08:36:00;27.00;99.90
19552;DHT22;9921;47.186;9.778;2022-08-04T08:38:37;27.10;99.90
19552;DHT22;9921;47.186;9.778;2022-08-04T08:50:30;27.60;99.90
19552;DHT22;9921;47.186;9.778;2022-08-04T08:53:26;27.70;99.90
19552;DHT22;9921;47.186;9.778;2022-08-04T08:56:13;27.80;99.90
19552;DHT22;9921;47.186;9.778;2022-08-04T08:58:50;27.90;99.90
19552;DHT22;9921;47.186;9.778;2022-08-04T09:01:33;28.00;99.90
19552;DHT22;9921;47.186;9.778;2022-08-04T09:04:22;28.10;99.90
19552;DHT22;9921;47.186;9.778;2022-08-04T09:07:06;28.20;99.90
19552;DHT22;9921;47.186;9.778;2022-08-04T09:09:48;28.30;99.90
19552;DHT22;9921;47.186;9.778;2022-08-04T09:12:23;28.40;99.90
19552;DHT22;9921;47.186;9.778;2022-08-04T09:14:56;28.50;99.90
19552;DHT22;9921;47.186;9.778;2022-08-04T09:17:28;28.70;99.90
19552;DHT22;9921;47.186;9.778;2022-08-04T09:20:00;28.90;99.90
19552;DHT22;9921;47.186;9.778;2022-08-04T09:22:35;29.00;99.90
19552;DHT22;9921;47.186;9.778;2022-08-04T09:25:10;29.10;99.90
19552;DHT22;9921;47.186;9.778;2022-08-04T09:27:45;29.20;99.90
19552;DHT22;9921;47.186;9.778;2022-08-04T09:30:18;29.40;99.90
19552;DHT22;9921;47.186;9.778;2022-08-04T09:32:54;29.50;99.90
19552;DHT22;9921;47.186;9.778;2022-08-04T09:35:33;29.50;99.90
19552;DHT22;9921;47.186;9.778;2022-08-04T09:38:09;29.60;99.90
19552;DHT22;9921;47.186;9.778;2022-08-04T09:40:47;29.70;99.90
19552;DHT22;9921;47.186;9.778;2022-08-04T09:43:26;29.90;99.90
19552;DHT22;9921;47.186;9.778;2022-08-04T09:46:00;30.00;99.90
19552;DHT22;9921;47.186;9.778;2022-08-04T09:48:34;30.10;99.90
19552;DHT22;9921;47.186;9.778;2022-08-04T09:51:23;30.20;99.90
19552;DHT22;9921;47.186;9.778;2022-08-04T09:54:00;30.30;99.90
19552;DHT22;9921;47.186;9.778;2022-08-04T09:56:41;30.40;99.90
19552;DHT22;9921;47.186;9.778;2022-08-04T09:59:23;30.50;99.90
19552;DHT22;9921;47.186;9.778;2022-08-04T10:01:55;30.60;99.90
19552;DHT22;9921;47.186;9.778;2022-08-04T10:04:23;30.70;99.90
19552;DHT22;9921;47.186;9.778;2022-08-04T10:07:03;30.70;99.90
19552;DHT22;9921;47.186;9.778;2022-08-04T10:09:46;30.80;99.90
19552;DHT22;9921;47.186;9.778;2022-08-04T10:12:28;30.90;99.90
19552;DHT22;9921;47.186;9.778;2022-08-04T10:15:08;31.10;99.90
19552;DHT22;9921;47.186;9.778;2022-08-04T10:17:44;31.20;99.90
19552;DHT22;9921;47.186;9.778;2022-08-04T10:20:25;31.30;99.90
19552;DHT22;9921;47.186;9.778;2022-08-04T10:23:10;31.50;99.90
19552;DHT22;9921;47.186;9.778;2022-08-04T10:25:47;31.50;99.90
19552;DHT22;9921;47.186;9.778;2022-08-04T10:28:18;31.70;99.90
19552;DHT22;9921;47.186;9.778;2022-08-04T10:30:49;31.80;99.90
19552;DHT22;9921;47.186;9.778;2022-08-04T10:33:22;31.90;99.90
19552;DHT22;9921;47.186;9.778;2022-08-04T10:35:52;32.00;99.90
19552;DHT22;9921;47.186;9.778;2022-08-04T10:38:29;32.10;99.90
19552;DHT22;9921;47.186;9.778;2022-08-04T10:41:00;32.20;99.90
19552;DHT22;9921;47.186;9.778;2022-08-04T10:43:40;32.30;99.90
19552;DHT22;9921;47.186;9.778;2022-08-04T10:46:11;32.40;99.90
19552;DHT22;9921;47.186;9.778;2022-08-04T10:48:43;32.50;99.90
19552;DHT22;9921;47.186;9.778;2022-08-04T10:51:19;32.50;99.90
19552;DHT22;9921;47.186;9.778;2022-08-04T10:53:52;32.70;99.90
19552;DHT22;9921;47.186;9.778;2022-08-04T10:56:31;32.80;99.90
19552;DHT22;9921;47.186;9.778;2022-08-04T10:59:01;32.90;99.90
19552;DHT22;9921;47.186;9.778;2022-08-04T11:05:23;33.00;99.90
19552;DHT22;9921;47.186;9.778;2022-08-04T11:07:57;33.10;99.90
19552;DHT22;9921;47.186;9.778;2022-08-04T11:10:29;33.20;99.90
19552;DHT22;9921;47.186;9.778;2022-08-04T11:13:00;33.30;99.90
19552;DHT22;9921;47.186;9.778;2022-08-04T11:15:32;33.40;99.90
19552;DHT22;9921;47.186;9.778;2022-08-04T11:18:07;33.50;99.20
19552;DHT22;9921;47.186;9.778;2022-08-04T11:20:41;33.50;99.90
19552;DHT22;9921;47.186;9.778;2022-08-04T11:23:13;33.60;99.40
19552;DHT22;9921;47.186;9.778;2022-08-04T11:25:56;33.70;99.60
19552;DHT22;9921;47.186;9.778;2022-08-04T11:28:32;33.80;98.90
19552;DHT22;9921;47.186;9.778;2022-08-04T11:31:04;33.90;95.50
19552;DHT22;9921;47.186;9.778;2022-08-04T11:33:36;33.90;93.30
19552;DHT22;9921;47.186;9.778;2022-08-04T11:36:13;33.90;94.30
19552;DHT22;9921;47.186;9.778;2022-08-04T11:38:45;34.00;96.20
19552;DHT22;9921;47.186;9.778;2022-08-04T11:41:18;34.10;95.90
19552;DHT22;9921;47.186;9.778;2022-08-04T11:43:52;34.20;96.80
19552;DHT22;9921;47.186;9.778;2022-08-04T11:46:25;34.30;96.00
19552;DHT22;9921;47.186;9.778;2022-08-04T11:49:09;34.40;93.90
19552;DHT22;9921;47.186;9.778;2022-08-04T11:51:37;34.30;95.50
19552;DHT22;9921;47.186;9.778;2022-08-04T11:54:05;34.30;94.70
19552;DHT22;9921;47.186;9.778;2022-08-04T11:56:36;34.30;94.80
19552;DHT22;9921;47.186;9.778;2022-08-04T11:59:04;34.30;95.10
19552;DHT22;9921;47.186;9.778;2022-08-04T12:01:37;34.40;95.50
19552;DHT22;9921;47.186;9.778;2022-08-04T12:04:15;34.40;93.10
19552;DHT22;9921;47.186;9.778;2022-08-04T12:06:48;34.40;94.20
19552;DHT22;9921;47.186;9.778;2022-08-04T12:09:21;34.50;93.90
19552;DHT22;9921;47.186;9.778;2022-08-04T12:12:05;34.60;92.80
19552;DHT22;9921;47.186;9.778;2022-08-04T12:14:45;34.60;91.10
19552;DHT22;9921;47.186;9.778;2022-08-04T12:17:21;34.70;92.90
19552;DHT22;9921;47.186;9.778;2022-08-04T12:19:54;34.80;92.50
19552;DHT22;9921;47.186;9.778;2022-08-04T12:22:23;34.70;90.00
19552;DHT22;9921;47.186;9.778;2022-08-04T12:24:55;34.70;91.80
19552;DHT22;9921;47.186;9.778;2022-08-04T12:27:30;34.80;91.00
19552;DHT22;9921;47.186;9.778;2022-08-04T12:29:58;34.80;90.60
19552;DHT22;9921;47.186;9.778;2022-08-04T12:32:31;34.90;89.10
19552;DHT22;9921;47.186;9.778;2022-08-04T12:35:08;34.90;89.40
19552;DHT22;9921;47.186;9.778;2022-08-04T12:37:46;35.00;88.30
19552;DHT22;9921;47.186;9.778;2022-08-04T12:40:19;35.00;87.80
19552;DHT22;9921;47.186;9.778;2022-08-04T12:42:54;35.00;90.00
19552;DHT22;9921;47.186;9.778;2022-08-04T12:45:23;35.00;90.20
19552;DHT22;9921;47.186;9.778;2022-08-04T12:47:52;35.10;90.10
19552;DHT22;9921;47.186;9.778;2022-08-04T12:50:19;35.10;90.10
19552;DHT22;9921;47.186;9.778;2022-08-04T12:52:50;35.30;92.30
19552;DHT22;9921;47.186;9.778;2022-08-04T12:55:21;35.30;86.00
19552;DHT22;9921;47.186;9.778;2022-08-04T12:57:50;35.30;88.50
19552;DHT22;9921;47.186;9.778;2022-08-04T13:00:27;35.30;90.30
19552;DHT22;9921;47.186;9.778;2022-08-04T13:02:59;35.50;90.00
19552;DHT22;9921;47.186;9.778;2022-08-04T13:05:30;35.50;86.10
19552;DHT22;9921;47.186;9.778;2022-08-04T13:08:00;35.40;86.70
19552;DHT22;9921;47.186;9.778;2022-08-04T13:10:29;35.50;88.90
19552;DHT22;9921;47.186;9.778;2022-08-04T13:12:59;35.50;87.10
19552;DHT22;9921;47.186;9.778;2022-08-04T13:15:27;35.50;88.80
19552;DHT22;9921;47.186;9.778;2022-08-04T13:17:57;35.60;85.80
19552;DHT22;9921;47.186;9.778;2022-08-04T13:20:27;35.60;86.00
19552;DHT22;9921;47.186;9.778;2022-08-04T13:23:12;35.60;89.40
19552;DHT22;9921;47.186;9.778;2022-08-04T13:25:43;35.60;83.60
19552;DHT22;9921;47.186;9.778;2022-08-04T13:28:15;35.50;86.90
19552;DHT22;9921;47.186;9.778;2022-08-04T13:30:44;35.50;88.10
19552;DHT22;9921;47.186;9.778;2022-08-04T13:33:12;35.40;85.30
19552;DHT22;9921;47.186;9.778;2022-08-04T13:35:43;35.50;86.90
19552;DHT22;9921;47.186;9.778;2022-08-04T13:38:11;35.40;84.00
19552;DHT22;9921;47.186;9.778;2022-08-04T13:40:39;35.50;89.20
19552;DHT22;9921;47.186;9.778;2022-08-04T13:43:08;35.60;83.80
19552;DHT22;9921;47.186;9.778;2022-08-04T13:45:37;35.50;85.30
19552;DHT22;9921;47.186;9.778;2022-08-04T13:48:06;35.60;86.40
19552;DHT22;9921;47.186;9.778;2022-08-04T13:50:36;35.60;88.20
19552;DHT22;9921;47.186;9.778;2022-08-04T13:53:03;35.60;87.40
19552;DHT22;9921;47.186;9.778;2022-08-04T13:55:32;35.60;83.20
19552;DHT22;9921;47.186;9.778;2022-08-04T13:58:08;35.40;81.20
19552;DHT22;9921;47.186;9.778;2022-08-04T14:00:42;35.30;85.10
19552;DHT22;9921;47.186;9.778;2022-08-04T14:03:13;35.40;84.10
19552;DHT22;9921;47.186;9.778;2022-08-04T14:05:41;35.40;81.70
19552;DHT22;9921;47.186;9.778;2022-08-04T14:08:15;35.40;82.80
19552;DHT22;9921;47.186;9.778;2022-08-04T14:10:52;35.40;86.40
19552;DHT22;9921;47.186;9.778;2022-08-04T14:13:28;35.50;83.50
19552;DHT22;9921;47.186;9.778;2022-08-04T14:15:58;35.60;84.30
19552;DHT22;9921;47.186;9.778;2022-08-04T14:18:26;35.60;84.10
19552;DHT22;9921;47.186;9.778;2022-08-04T14:20:59;35.50;84.40
19552;DHT22;9921;47.186;9.778;2022-08-04T14:23:26;35.50;82.10
19552;DHT22;9921;47.186;9.778;2022-08-04T14:25:53;35.40;80.40
19552;DHT22;9921;47.186;9.778;2022-08-04T14:28:27;35.30;80.80
19552;DHT22;9921;47.186;9.778;2022-08-04T14:31:10;35.20;84.30
19552;DHT22;9921;47.186;9.778;2022-08-04T14:33:38;35.20;83.60
19552;DHT22;9921;47.186;9.778;2022-08-04T14:36:05;35.20;80.90
19552;DHT22;9921;47.186;9.778;2022-08-04T14:38:48;35.20;83.40
19552;DHT22;9921;47.186;9.778;2022-08-04T14:41:16;35.10;82.00
19552;DHT22;9921;47.186;9.778;2022-08-04T14:43:45;35.20;85.80
19552;DHT22;9921;47.186;9.778;2022-08-04T14:46:14;35.20;84.60
19552;DHT22;9921;47.186;9.778;2022-08-04T14:49:00;35.20;87.00
19552;DHT22;9921;47.186;9.778;2022-08-04T14:51:27;35.20;86.50
19552;DHT22;9921;47.186;9.778;2022-08-04T14:53:59;35.20;86.40
19552;DHT22;9921;47.186;9.778;2022-08-04T14:56:26;35.20;84.10
19552;DHT22;9921;47.186;9.778;2022-08-04T14:58:58;35.20;82.80
19552;DHT22;9921;47.186;9.778;2022-08-04T15:01:27;35.10;79.70
19552;DHT22;9921;47.186;9.778;2022-08-04T15:03:55;35.10;80.50
19552;DHT22;9921;47.186;9.778;2022-08-04T15:06:25;35.00;84.20
19552;DHT22;9921;47.186;9.778;2022-08-04T15:08:54;35.00;84.30
19552;DHT22;9921;47.186;9.778;2022-08-04T15:11:21;34.90;83.10
19552;DHT22;9921;47.186;9.778;2022-08-04T15:13:48;34.80;79.70
19552;DHT22;9921;47.186;9.778;2022-08-04T15:16:15;34.70;84.00
19552;DHT22;9921;47.186;9.778;2022-08-04T15:18:44;34.60;83.60
19552;DHT22;9921;47.186;9.778;2022-08-04T15:21:11;34.60;83.80
19552;DHT22;9921;47.186;9.778;2022-08-04T15:23:40;34.60;86.40
19552;DHT22;9921;47.186;9.778;2022-08-04T15:26:10;34.60;85.40
19552;DHT22;9921;47.186;9.778;2022-08-04T15:28:41;34.50;85.00
19552;DHT22;9921;47.186;9.778;2022-08-04T15:31:10;34.50;84.50
19552;DHT22;9921;47.186;9.778;2022-08-04T15:33:39;34.40;80.60
19552;DHT22;9921;47.186;9.778;2022-08-04T15:36:14;34.30;80.20
19552;DHT22;9921;47.186;9.778;2022-08-04T15:38:49;34.30;81.70
19552;DHT22;9921;47.186;9.778;2022-08-04T15:41:25;34.20;84.20
19552;DHT22;9921;47.186;9.778;2022-08-04T15:44:05;34.20;83.50
19552;DHT22;9921;47.186;9.778;2022-08-04T15:47:09;34.00;86.20
19552;DHT22;9921;47.186;9.778;2022-08-04T15:49:37;34.00;83.80
19552;DHT22;9921;47.186;9.778;2022-08-04T15:52:08;34.00;85.80
19552;DHT22;9921;47.186;9.778;2022-08-04T15:54:35;33.90;87.10
19552;DHT22;9921;47.186;9.778;2022-08-04T15:57:03;33.90;83.40
19552;DHT22;9921;47.186;9.778;2022-08-04T15:59:55;33.80;84.00
19552;DHT22;9921;47.186;9.778;2022-08-04T16:02:37;33.80;84.80
19552;DHT22;9921;47.186;9.778;2022-08-04T16:05:33;33.70;82.60
19552;DHT22;9921;47.186;9.778;2022-08-04T16:08:15;33.60;83.30
19552;DHT22;9921;47.186;9.778;2022-08-04T16:10:45;33.60;84.20
19552;DHT22;9921;47.186;9.778;2022-08-04T16:13:14;33.50;84.20
19552;DHT22;9921;47.186;9.778;2022-08-04T16:15:45;33.50;83.10
19552;DHT22;9921;47.186;9.778;2022-08-04T16:18:35;33.40;82.40
19552;DHT22;9921;47.186;9.778;2022-08-04T16:21:04;33.40;85.40
19552;DHT22;9921;47.186;9.778;2022-08-04T16:24:05;33.40;85.60
19552;DHT22;9921;47.186;9.778;2022-08-04T16:26:42;33.30;85.30
19552;DHT22;9921;47.186;9.778;2022-08-04T16:29:27;33.30;87.90
19552;DHT22;9921;47.186;9.778;2022-08-04T16:32:14;33.30;85.40
19552;DHT22;9921;47.186;9.778;2022-08-04T16:34:44;33.30;87.30
19552;DHT22;9921;47.186;9.778;2022-08-04T16:37:14;33.20;86.90
19552;DHT22;9921;47.186;9.778;2022-08-04T16:39:44;33.10;87.70
19552;DHT22;9921;47.186;9.778;2022-08-04T16:42:33;33.10;87.20
19552;DHT22;9921;47.186;9.778;2022-08-04T16:45:02;33.00;88.20
19552;DHT22;9921;47.186;9.778;2022-08-04T16:48:01;32.90;86.80
19552;DHT22;9921;47.186;9.778;2022-08-04T16:50:32;32.90;87.30
19552;DHT22;9921;47.186;9.778;2022-08-04T16:53:00;32.80;87.00
19552;DHT22;9921;47.186;9.778;2022-08-04T16:55:36;32.70;88.80
19552;DHT22;9921;47.186;9.778;2022-08-04T16:58:03;32.70;88.90
19552;DHT22;9921;47.186;9.778;2022-08-04T17:00:32;32.60;86.60
19552;DHT22;9921;47.186;9.778;2022-08-04T17:03:01;32.60;87.10
19552;DHT22;9921;47.186;9.778;2022-08-04T17:05:28;32.60;87.60
19552;DHT22;9921;47.186;9.778;2022-08-04T17:07:57;32.40;87.00
19552;DHT22;9921;47.186;9.778;2022-08-04T17:10:32;32.40;89.80
19552;DHT22;9921;47.186;9.778;2022-08-04T17:13:01;32.40;90.30
19552;DHT22;9921;47.186;9.778;2022-08-04T17:15:47;32.30;90.20
19552;DHT22;9921;47.186;9.778;2022-08-04T17:18:16;32.20;90.80
19552;DHT22;9921;47.186;9.778;2022-08-04T17:20:43;32.20;90.60
19552;DHT22;9921;47.186;9.778;2022-08-04T17:23:31;32.00;91.20
19552;DHT22;9921;47.186;9.778;2022-08-04T17:26:00;32.00;91.50
19552;DHT22;9921;47.186;9.778;2022-08-04T17:28:29;31.90;91.60
19552;DHT22;9921;47.186;9.778;2022-08-04T17:30:57;31.80;92.20
19552;DHT22;9921;47.186;9.778;2022-08-04T17:33:25;31.80;92.30
19552;DHT22;9921;47.186;9.778;2022-08-04T17:35:54;31.70;93.80
19552;DHT22;9921;47.186;9.778;2022-08-04T17:38:27;31.40;95.70